createdAt,value
2023-05-15T00:00:30.956Z,4.10
2023-05-15T00:03:19.157Z,4.00
2023-05-15T00:05:47.428Z,4.10
2023-05-15T00:08:15.529Z,4.10
2023-05-15T00:10:53.938Z,4.00
2023-05-15T00:13:28.723Z,3.80
2023-05-15T00:15:57.097Z,4.20
2023-05-15T00:18:25.276Z,4.50
2023-05-15T00:20:53.667Z,4.10
2023-05-15T00:23:21.612Z,4.60
2023-05-15T00:25:49.696Z,4.20
2023-05-15T00:28:17.652Z,4.20
2023-05-15T00:30:45.829Z,4.10
2023-05-15T00:33:13.902Z,4.10
2023-05-15T00:35:42.071Z,4.20
2023-05-15T00:38:10.140Z,4.70
2023-05-15T00:40:39.406Z,4.10
2023-05-15T00:43:10.213Z,4.10
2023-05-15T00:45:41.309Z,4.20
2023-05-15T00:48:12.936Z,4.10
2023-05-15T00:50:42.140Z,4.10
2023-05-15T00:53:10.543Z,4.40
2023-05-15T00:55:39.854Z,4.50
2023-05-15T00:58:09.098Z,3.80
2023-05-15T01:00:38.179Z,4.30
2023-05-15T01:03:06.484Z,4.10
2023-05-15T01:05:35.108Z,3.70
2023-05-15T01:08:22.020Z,4.60
2023-05-15T01:10:52.642Z,4.50
2023-05-15T01:13:22.708Z,4.10
2023-05-15T01:15:51.094Z,4.20
2023-05-15T01:18:19.212Z,4.00
2023-05-15T01:21:10.332Z,4.20
2023-05-15T01:24:06.515Z,4.20
2023-05-15T01:26:53.257Z,4.10
2023-05-15T01:29:27.694Z,4.10
2023-05-15T01:32:00.662Z,4.00
2023-05-15T01:34:39.663Z,4.00
2023-05-15T01:37:09.087Z,3.70
2023-05-15T01:39:42.362Z,4.30
2023-05-15T01:42:13.460Z,4.00
2023-05-15T01:44:46.370Z,4.20
2023-05-15T01:47:18.060Z,4.00
2023-05-15T01:49:49.406Z,4.10
2023-05-15T01:52:33.970Z,3.80
2023-05-15T01:55:03.232Z,4.10
2023-05-15T01:57:32.202Z,4.10
2023-05-15T02:00:01.935Z,4.20
2023-05-15T02:02:31.957Z,4.10
2023-05-15T02:05:01.224Z,4.00
2023-05-15T02:07:29.760Z,4.30
2023-05-15T02:09:59.376Z,4.40
2023-05-15T02:12:28.529Z,4.30
2023-05-15T02:14:58.480Z,5.50
2023-05-15T02:17:29.512Z,4.50
2023-05-15T02:19:57.750Z,4.40
2023-05-15T02:22:25.861Z,4.80
2023-05-15T02:24:53.933Z,4.50
2023-05-15T02:27:28.070Z,4.50
2023-05-15T02:30:14.348Z,4.80
2023-05-15T02:33:12.927Z,4.40
2023-05-15T02:36:01.989Z,4.70
2023-05-15T02:38:39.072Z,4.50
2023-05-15T02:41:08.128Z,4.60
2023-05-15T02:43:37.498Z,4.80
2023-05-15T02:46:07.687Z,4.60
2023-05-15T02:48:39.710Z,4.40
2023-05-15T02:51:08.504Z,4.60
2023-05-15T02:53:43.644Z,4.90
2023-05-15T02:56:11.571Z,4.70
2023-05-15T02:58:40.374Z,4.80
2023-05-15T03:01:08.948Z,4.30
2023-05-15T03:03:37.081Z,4.40
2023-05-15T03:06:05.168Z,4.20
2023-05-15T03:08:33.321Z,4.10
2023-05-15T03:11:01.603Z,4.40
2023-05-15T03:13:29.791Z,4.30
2023-05-15T03:15:57.939Z,4.30
2023-05-15T03:18:26.145Z,4.80
2023-05-15T03:20:55.026Z,4.60
2023-05-15T03:23:23.171Z,4.60
2023-05-15T03:25:51.252Z,4.70
2023-05-15T03:28:19.223Z,4.50
2023-05-15T03:30:47.284Z,4.80
2023-05-15T03:33:15.219Z,4.90
2023-05-15T03:35:44.784Z,4.70
2023-05-15T03:38:12.833Z,4.60
2023-05-15T03:40:41.207Z,4.80
2023-05-15T03:43:09.173Z,4.90
2023-05-15T03:45:37.252Z,4.70
2023-05-15T03:48:05.824Z,4.90
2023-05-15T03:50:33.897Z,4.90
2023-05-15T03:53:01.969Z,4.70
2023-05-15T03:55:30.139Z,5.10
2023-05-15T03:57:58.829Z,4.90
2023-05-15T04:00:27.143Z,4.80
2023-05-15T04:02:55.927Z,5.00
2023-05-15T04:05:24.248Z,4.90
2023-05-15T04:07:52.434Z,5.10
2023-05-15T04:10:20.615Z,4.80
2023-05-15T04:12:48.703Z,4.90
2023-05-15T04:15:24.820Z,4.90
2023-05-15T04:17:54.329Z,5.00
2023-05-15T04:20:24.801Z,5.10
2023-05-15T04:22:53.417Z,4.90
2023-05-15T04:25:21.941Z,4.90
2023-05-15T04:27:50.133Z,4.60
2023-05-15T04:30:18.058Z,5.00
2023-05-15T04:32:46.091Z,5.00
2023-05-15T04:35:15.548Z,5.00
2023-05-15T04:37:45.971Z,5.00
2023-05-15T04:40:16.573Z,4.70
2023-05-15T04:42:44.895Z,4.80
2023-05-15T04:45:12.959Z,4.90
2023-05-15T04:47:41.298Z,4.70
2023-05-15T04:50:10.107Z,4.70
2023-05-15T04:52:38.089Z,4.80
2023-05-15T04:55:06.915Z,4.70
2023-05-15T04:57:35.147Z,4.90
2023-05-15T05:00:05.962Z,4.70
2023-05-15T05:02:33.999Z,5.00
2023-05-15T05:05:02.225Z,4.70
2023-05-15T05:07:30.294Z,4.90
2023-05-15T05:09:58.209Z,5.10
2023-05-15T05:12:27.936Z,5.00
2023-05-15T05:14:57.134Z,5.10
2023-05-15T05:17:25.189Z,4.50
2023-05-15T05:19:53.282Z,4.80
2023-05-15T05:22:21.289Z,5.10
2023-05-15T05:24:49.245Z,4.80
2023-05-15T05:27:17.215Z,5.00
2023-05-15T05:29:45.179Z,4.60
2023-05-15T05:32:13.263Z,5.00
2023-05-15T05:34:41.325Z,5.20
2023-05-15T05:37:09.394Z,5.10
2023-05-15T05:39:37.465Z,4.90
2023-05-15T05:42:06.050Z,5.10
2023-05-15T05:44:34.875Z,4.90
2023-05-15T05:47:02.928Z,5.10
2023-05-15T05:49:31.078Z,5.30
2023-05-15T05:52:05.844Z,5.10
2023-05-15T05:54:34.197Z,5.20
2023-05-15T05:57:02.458Z,5.00
2023-05-15T05:59:30.713Z,4.80
2023-05-15T06:01:58.731Z,5.10
2023-05-15T06:04:27.055Z,5.30
2023-05-15T06:06:55.044Z,5.30
2023-05-15T06:09:22.991Z,5.20
2023-05-15T06:11:51.077Z,5.20
2023-05-15T06:14:19.496Z,5.40
2023-05-15T06:16:48.196Z,5.50
2023-05-15T06:19:16.369Z,5.30
2023-05-15T06:21:44.434Z,5.30
2023-05-15T06:24:12.430Z,5.10
2023-05-15T06:26:40.541Z,5.40
2023-05-15T06:29:08.524Z,5.20
2023-05-15T06:31:36.558Z,5.60
2023-05-15T06:34:04.534Z,4.90
2023-05-15T06:36:32.638Z,5.10
2023-05-15T06:39:00.713Z,5.20
2023-05-15T06:41:28.751Z,5.00
2023-05-15T06:43:56.711Z,4.90
2023-05-15T06:46:24.707Z,4.70
2023-05-15T06:48:52.751Z,5.10
2023-05-15T06:51:20.771Z,5.00
2023-05-15T06:53:48.764Z,5.40
2023-05-15T06:56:17.072Z,4.70
2023-05-15T06:58:45.141Z,5.10
2023-05-15T07:01:13.245Z,4.90
2023-05-15T07:03:43.146Z,5.00
2023-05-15T07:06:11.291Z,4.90
2023-05-15T07:08:39.360Z,4.80
2023-05-15T07:11:07.540Z,5.20
2023-05-15T07:13:35.503Z,5.50
2023-05-15T07:16:04.158Z,4.90
2023-05-15T07:18:32.337Z,4.70
2023-05-15T07:21:00.838Z,4.80
2023-05-15T07:23:29.016Z,5.00
2023-05-15T07:25:57.091Z,5.00
2023-05-15T07:28:25.151Z,4.90
2023-05-15T07:30:53.224Z,5.00
2023-05-15T07:33:21.301Z,5.10
2023-05-15T07:35:51.006Z,5.80
2023-05-15T07:38:19.056Z,4.60
2023-05-15T07:40:47.041Z,5.50
2023-05-15T07:43:15.011Z,4.90
2023-05-15T07:45:43.305Z,4.80
2023-05-15T07:48:15.990Z,4.90
2023-05-15T07:50:48.945Z,5.30
2023-05-15T07:53:17.021Z,4.70
2023-05-15T07:55:45.191Z,4.40
2023-05-15T07:58:13.162Z,4.80
2023-05-15T08:00:41.452Z,4.90
2023-05-15T08:03:11.125Z,4.90
2023-05-15T08:05:39.336Z,4.80
2023-05-15T08:08:07.389Z,4.70
2023-05-15T08:10:35.560Z,4.60
2023-05-15T08:13:03.629Z,4.30
2023-05-15T08:15:31.805Z,4.60
2023-05-15T08:17:59.896Z,4.60
2023-05-15T08:20:27.968Z,4.70
2023-05-15T08:22:55.968Z,4.60
2023-05-15T08:25:24.155Z,4.50
2023-05-15T08:27:52.274Z,4.60
2023-05-15T08:30:20.427Z,4.60
2023-05-15T08:32:49.319Z,4.40
2023-05-15T08:35:17.400Z,4.60
2023-05-15T08:37:45.577Z,4.20
2023-05-15T08:40:14.168Z,4.20
2023-05-15T08:42:45.645Z,4.20
2023-05-15T08:45:14.382Z,4.30
2023-05-15T08:47:43.588Z,4.40
2023-05-15T08:50:16.625Z,4.30
2023-05-15T08:52:48.509Z,4.60
2023-05-15T08:55:17.431Z,4.90
2023-05-15T08:57:48.052Z,5.30
2023-05-15T09:00:21.151Z,4.80
2023-05-15T09:02:49.295Z,4.60
2023-05-15T09:05:17.480Z,4.00
2023-05-15T09:07:46.421Z,4.30
2023-05-15T09:10:15.256Z,4.50
2023-05-15T09:12:44.662Z,4.60
2023-05-15T09:15:18.216Z,4.10
2023-05-15T09:17:46.588Z,4.80
2023-05-15T09:20:31.336Z,4.50
2023-05-15T09:23:01.519Z,4.50
2023-05-15T09:25:41.087Z,4.50
2023-05-15T09:28:11.214Z,4.10
2023-05-15T09:30:42.710Z,4.40
2023-05-15T09:33:12.271Z,4.30
2023-05-15T09:35:41.231Z,3.60
2023-05-15T09:38:11.930Z,3.80
2023-05-15T09:40:43.444Z,4.50
2023-05-15T09:43:14.644Z,4.50
2023-05-15T09:45:43.341Z,4.60
2023-05-15T09:48:12.445Z,5.00
2023-05-15T09:50:42.145Z,4.40
2023-05-15T09:53:12.999Z,4.80
2023-05-15T09:55:43.176Z,4.90
2023-05-15T09:58:13.429Z,4.80
2023-05-15T10:00:47.844Z,5.00
2023-05-15T10:03:21.540Z,4.40
2023-05-15T10:05:49.813Z,4.40
2023-05-15T10:08:27.776Z,4.40
2023-05-15T10:10:59.852Z,4.20
2023-05-15T10:13:31.603Z,4.00
2023-05-15T10:16:02.423Z,4.30
2023-05-15T10:18:31.866Z,4.20
2023-05-15T10:21:04.435Z,4.40
2023-05-15T10:23:36.026Z,4.40
2023-05-15T10:26:14.485Z,3.90
2023-05-15T10:28:44.971Z,3.60
2023-05-15T10:31:14.057Z,3.40
2023-05-15T10:33:43.475Z,3.50
2023-05-15T10:36:13.008Z,3.80
2023-05-15T10:38:41.637Z,3.30
2023-05-15T10:41:17.584Z,3.50
2023-05-15T10:43:47.047Z,3.30
2023-05-15T10:46:16.326Z,3.50
2023-05-15T10:48:44.479Z,3.60
2023-05-15T10:51:24.511Z,3.50
2023-05-15T10:53:52.953Z,3.90
2023-05-15T10:56:21.638Z,3.60
2023-05-15T10:58:51.716Z,3.70
2023-05-15T11:01:28.109Z,4.00
2023-05-15T11:04:17.271Z,3.80
2023-05-15T11:06:50.305Z,4.40
2023-05-15T11:09:28.097Z,4.00
2023-05-15T11:11:58.960Z,4.30
2023-05-15T11:14:27.798Z,4.30
2023-05-15T11:16:55.954Z,4.70
2023-05-15T11:19:59.606Z,4.50
2023-05-15T11:22:31.218Z,4.40
2023-05-15T11:25:10.631Z,4.40
2023-05-15T11:27:44.256Z,4.50
2023-05-15T11:30:36.426Z,4.90
2023-05-15T11:33:11.569Z,4.50
2023-05-15T11:35:43.837Z,5.10
2023-05-15T11:38:17.015Z,4.50
2023-05-15T11:40:56.678Z,4.70
2023-05-15T11:43:26.021Z,4.40
2023-05-15T11:46:07.054Z,4.70
2023-05-15T11:48:43.290Z,5.10
2023-05-15T11:51:21.561Z,4.90
2023-05-15T11:53:51.639Z,5.00
2023-05-15T11:56:22.871Z,4.60
2023-05-15T11:59:01.348Z,4.70
2023-05-15T12:01:43.401Z,4.50
2023-05-15T12:04:18.758Z,4.30
2023-05-15T12:06:49.740Z,4.00
2023-05-15T12:09:19.591Z,3.90
2023-05-15T12:11:55.539Z,3.90
2023-05-15T12:14:28.938Z,3.80
2023-05-15T12:17:03.084Z,3.90
2023-05-15T12:19:31.937Z,3.80
2023-05-15T12:21:59.916Z,3.80
2023-05-15T12:24:27.970Z,4.30
2023-05-15T12:26:57.504Z,3.90
2023-05-15T12:29:26.937Z,4.00
2023-05-15T12:31:55.304Z,4.10
2023-05-15T12:34:23.431Z,3.50
2023-05-15T12:36:51.497Z,4.00
2023-05-15T12:39:19.568Z,3.70
2023-05-15T12:41:49.115Z,3.70
2023-05-15T12:44:18.656Z,3.50
2023-05-15T12:46:47.956Z,3.50
2023-05-15T12:49:22.721Z,3.30
2023-05-15T12:51:50.772Z,3.40
2023-05-15T12:54:21.715Z,3.30
2023-05-15T12:56:50.086Z,3.60
2023-05-15T12:59:18.978Z,3.00
2023-05-15T13:01:47.215Z,3.30
2023-05-15T13:04:16.450Z,3.20
2023-05-15T13:06:47.576Z,3.30
2023-05-15T13:09:22.787Z,3.40
2023-05-15T13:11:50.960Z,3.10
2023-05-15T13:14:19.783Z,3.40
2023-05-15T13:16:47.990Z,3.70
2023-05-15T13:19:17.056Z,4.10
2023-05-15T13:21:45.804Z,3.70
2023-05-15T13:24:13.747Z,3.90
2023-05-15T13:26:42.079Z,4.00
2023-05-15T13:29:10.003Z,4.00
2023-05-15T13:31:38.073Z,4.40
2023-05-15T13:34:06.580Z,4.10
2023-05-15T13:36:34.470Z,4.60
2023-05-15T13:39:02.439Z,4.60
2023-05-15T13:41:30.507Z,5.60
2023-05-15T13:43:58.475Z,4.70
2023-05-15T13:46:26.574Z,5.00
2023-05-15T13:48:54.534Z,5.50
2023-05-15T13:51:22.581Z,6.00
2023-05-15T13:53:50.616Z,5.10
2023-05-15T13:56:18.661Z,6.30
2023-05-15T13:58:46.590Z,5.60
2023-05-15T14:01:14.735Z,6.00
2023-05-15T14:03:42.868Z,6.00
2023-05-15T14:06:10.963Z,5.80
2023-05-15T14:08:39.043Z,6.10
2023-05-15T14:11:07.413Z,5.90
2023-05-15T14:13:35.852Z,6.30
2023-05-15T14:16:04.085Z,6.00
2023-05-15T14:18:32.312Z,6.40
2023-05-15T14:21:00.455Z,6.10
2023-05-15T14:23:28.525Z,6.20
2023-05-15T14:25:56.464Z,6.20
2023-05-15T14:28:25.070Z,6.20
2023-05-15T14:30:53.152Z,5.70
2023-05-15T14:33:21.246Z,6.20
2023-05-15T14:35:49.203Z,6.70
2023-05-15T14:38:17.577Z,6.30
2023-05-15T14:40:45.626Z,6.60
2023-05-15T14:43:13.590Z,6.60
2023-05-15T14:45:41.568Z,6.90
2023-05-15T14:48:11.868Z,6.50
2023-05-15T14:50:39.955Z,7.40
2023-05-15T14:53:08.130Z,7.10
2023-05-15T14:55:36.200Z,7.20
2023-05-15T14:58:04.168Z,7.20
2023-05-15T15:00:32.438Z,7.40
2023-05-15T15:03:02.777Z,7.40
2023-05-15T15:05:30.942Z,8.00
2023-05-15T15:08:05.945Z,7.20
2023-05-15T15:10:36.497Z,8.40
2023-05-15T15:13:05.385Z,7.70
2023-05-15T15:15:34.992Z,6.50
2023-05-15T15:18:03.300Z,6.80
2023-05-15T15:20:31.771Z,5.90
2023-05-15T15:22:59.816Z,6.40
2023-05-15T15:25:28.231Z,6.60
2023-05-15T15:27:57.391Z,6.60
2023-05-15T15:30:25.784Z,7.20
2023-05-15T15:32:54.983Z,6.50
2023-05-15T15:35:23.447Z,6.60
2023-05-15T15:37:52.103Z,6.60
2023-05-15T15:40:20.675Z,6.50
2023-05-15T15:42:48.700Z,6.70
2023-05-15T15:45:16.711Z,6.70
2023-05-15T15:47:44.882Z,7.70
2023-05-15T15:50:12.905Z,6.90
2023-05-15T15:52:40.978Z,6.80
2023-05-15T15:55:10.007Z,7.30
2023-05-15T15:57:38.234Z,7.00
2023-05-15T16:00:08.317Z,7.60
2023-05-15T16:02:37.054Z,7.30
2023-05-15T16:05:05.939Z,7.50
2023-05-15T16:07:34.513Z,7.10
2023-05-15T16:10:11.476Z,7.20
2023-05-15T16:12:42.532Z,7.60
2023-05-15T16:17:46.070Z,8.10
2023-05-15T16:20:14.318Z,7.80
2023-05-15T16:22:43.505Z,7.70
2023-05-15T16:25:11.583Z,7.80
2023-05-15T16:27:39.786Z,7.90
2023-05-15T16:30:09.465Z,7.90
2023-05-15T16:32:37.767Z,8.20
2023-05-15T16:35:06.537Z,8.20
2023-05-15T16:37:34.608Z,7.70
2023-05-15T16:40:03.188Z,8.60
2023-05-15T16:42:36.035Z,7.90
2023-05-15T16:45:05.547Z,8.10
2023-05-15T16:47:34.189Z,8.30
2023-05-15T16:50:02.567Z,8.40
2023-05-15T16:52:30.703Z,8.10
2023-05-15T16:54:58.783Z,8.60
2023-05-15T16:57:27.119Z,8.40
2023-05-15T16:59:55.122Z,8.80
2023-05-15T17:02:23.235Z,8.90
2023-05-15T17:04:51.571Z,8.50
2023-05-15T17:07:20.767Z,10.00
2023-05-15T17:09:48.827Z,9.30
2023-05-15T17:12:17.066Z,8.70
2023-05-15T17:14:45.079Z,9.00
2023-05-15T17:17:13.142Z,9.00
2023-05-15T17:19:41.114Z,10.10
2023-05-15T17:22:09.179Z,9.20
2023-05-15T17:24:50.013Z,9.70
2023-05-15T17:27:20.138Z,9.30
2023-05-15T17:29:48.657Z,8.80
2023-05-15T17:32:17.717Z,9.60
2023-05-15T17:34:46.709Z,9.20
2023-05-15T17:37:15.141Z,9.60
2023-05-15T17:39:43.488Z,9.30
2023-05-15T17:42:11.666Z,8.60
2023-05-15T17:44:39.772Z,8.40
2023-05-15T17:47:08.645Z,8.40
2023-05-15T17:49:37.929Z,9.40
2023-05-15T17:52:08.251Z,9.10
2023-05-15T17:54:36.317Z,8.60
2023-05-15T17:57:04.964Z,9.10
2023-05-15T17:59:33.282Z,9.00
2023-05-15T18:02:01.293Z,10.90
2023-05-15T18:04:29.558Z,11.90
2023-05-15T18:06:57.598Z,11.20
2023-05-15T18:09:26.117Z,10.20
2023-05-15T18:11:54.064Z,9.90
2023-05-15T18:14:22.107Z,8.90
2023-05-15T18:16:51.150Z,9.20
2023-05-15T18:19:19.537Z,8.80
2023-05-15T18:21:47.771Z,9.10
2023-05-15T18:24:15.924Z,8.80
2023-05-15T18:26:43.999Z,8.60
2023-05-15T18:29:11.979Z,8.30
2023-05-15T18:31:40.008Z,8.40
2023-05-15T18:34:08.216Z,8.80
2023-05-15T18:36:36.275Z,7.80
2023-05-15T18:39:04.359Z,8.20
2023-05-15T18:41:32.827Z,8.40
2023-05-15T18:44:01.120Z,8.20
2023-05-15T18:46:31.267Z,8.60
2023-05-15T18:49:00.142Z,8.30
2023-05-15T18:51:28.117Z,8.40
2023-05-15T18:53:56.154Z,7.90
2023-05-15T18:56:25.272Z,7.60
2023-05-15T18:58:54.597Z,7.50
2023-05-15T19:01:22.626Z,7.80
2023-05-15T19:03:51.285Z,7.30
2023-05-15T19:06:20.332Z,7.40
2023-05-15T19:08:49.251Z,7.70
2023-05-15T19:11:17.568Z,7.90
2023-05-15T19:13:45.650Z,7.40
2023-05-15T19:16:13.930Z,7.60
2023-05-15T19:18:42.021Z,7.70
2023-05-15T19:21:10.456Z,7.90
2023-05-15T19:23:38.537Z,8.40
2023-05-15T19:26:06.604Z,7.90
2023-05-15T19:28:34.978Z,7.30
2023-05-15T19:31:04.493Z,8.20
2023-05-15T19:33:34.700Z,8.40
2023-05-15T19:36:02.779Z,8.50
2023-05-15T19:38:30.944Z,8.30
2023-05-15T19:40:59.217Z,8.60
2023-05-15T19:43:27.803Z,8.60
2023-05-15T19:45:55.905Z,8.70
2023-05-15T19:48:24.214Z,8.90
2023-05-15T19:50:52.417Z,9.30
2023-05-15T19:53:20.938Z,9.10
2023-05-15T19:55:49.478Z,9.60
2023-05-15T19:58:17.447Z,9.30
2023-05-15T20:00:46.337Z,9.60
2023-05-15T20:03:14.420Z,9.40
2023-05-15T20:05:42.576Z,10.00
2023-05-15T20:08:11.158Z,10.60
2023-05-15T20:10:39.129Z,10.70
2023-05-15T20:13:07.360Z,11.80
2023-05-15T20:15:40.126Z,11.20
2023-05-15T20:18:08.431Z,11.70
2023-05-15T20:20:36.845Z,11.70
2023-05-15T20:23:04.905Z,11.90
2023-05-15T20:25:33.183Z,12.20
2023-05-15T20:28:01.459Z,12.90
2023-05-15T20:30:29.838Z,14.00
2023-05-15T20:32:58.370Z,14.50
2023-05-15T20:35:27.034Z,14.20
2023-05-15T20:37:56.480Z,14.20
2023-05-15T20:40:28.262Z,15.20
2023-05-15T20:42:57.219Z,15.10
2023-05-15T20:45:25.937Z,15.60
2023-05-15T20:47:54.064Z,16.50
2023-05-15T20:50:22.396Z,16.00
2023-05-15T20:52:50.765Z,16.30
2023-05-15T20:55:20.443Z,16.40
2023-05-15T20:57:49.477Z,16.60
2023-05-15T21:00:18.391Z,16.50
2023-05-15T21:02:46.948Z,16.10
2023-05-15T21:05:15.139Z,17.10
2023-05-15T21:07:43.185Z,17.40
2023-05-15T21:10:11.807Z,17.20
2023-05-15T21:12:40.893Z,18.10
2023-05-15T21:15:09.605Z,18.50
2023-05-15T21:17:37.643Z,18.00
2023-05-15T21:20:06.667Z,18.20
2023-05-15T21:22:34.850Z,19.00
2023-05-15T21:25:03.161Z,19.80
2023-05-15T21:27:31.129Z,20.90
2023-05-15T21:29:59.200Z,21.00
2023-05-15T21:32:27.320Z,20.70
2023-05-15T21:34:55.332Z,21.20
2023-05-15T21:37:23.314Z,20.60
2023-05-15T21:39:51.323Z,21.10
2023-05-15T21:42:19.245Z,21.00
2023-05-15T21:44:47.208Z,21.80
2023-05-15T21:47:15.177Z,21.80
2023-05-15T21:49:43.147Z,22.60
2023-05-15T21:52:11.419Z,22.00
2023-05-15T21:54:39.504Z,21.80
2023-05-15T21:57:07.439Z,21.90
2023-05-15T21:59:35.631Z,22.00
2023-05-15T22:02:03.770Z,21.70
2023-05-15T22:04:31.977Z,21.80
2023-05-15T22:06:59.941Z,22.40
2023-05-15T22:09:27.916Z,21.20
2023-05-15T22:11:56.079Z,22.20
2023-05-15T22:14:24.025Z,22.70
2023-05-15T22:16:52.050Z,23.50
2023-05-15T22:19:32.088Z,22.90
2023-05-15T22:22:03.591Z,23.10
2023-05-15T22:24:31.601Z,23.10
2023-05-15T22:26:59.862Z,22.40
2023-05-15T22:29:27.789Z,23.30
2023-05-15T22:31:56.960Z,22.10
2023-05-15T22:34:28.917Z,22.00
2023-05-15T22:36:56.866Z,22.40
2023-05-15T22:39:24.832Z,21.80
2023-05-15T22:41:52.900Z,21.70
2023-05-15T22:44:20.962Z,21.10
2023-05-15T22:46:48.930Z,21.20
2023-05-15T22:49:23.758Z,20.60
2023-05-15T22:51:52.491Z,20.20
2023-05-15T22:54:22.252Z,19.50
2023-05-15T22:56:52.801Z,19.20
2023-05-15T22:59:21.768Z,18.60
2023-05-15T23:01:50.087Z,18.80
2023-05-15T23:04:18.330Z,18.00
2023-05-15T23:06:46.808Z,18.50
2023-05-15T23:09:15.288Z,17.00
2023-05-15T23:11:43.358Z,17.10
2023-05-15T23:14:12.253Z,16.90
2023-05-15T23:16:40.191Z,16.50
2023-05-15T23:19:08.324Z,16.10
2023-05-15T23:21:36.850Z,16.40
2023-05-15T23:24:05.348Z,16.00
2023-05-15T23:26:33.320Z,16.20
2023-05-15T23:29:01.299Z,16.00
2023-05-15T23:31:29.494Z,15.60
2023-05-15T23:33:57.640Z,15.90
2023-05-15T23:36:25.804Z,15.30
2023-05-15T23:38:53.767Z,15.80
2023-05-15T23:41:23.087Z,15.00
2023-05-15T23:43:51.347Z,15.60
2023-05-15T23:46:19.485Z,15.00
2023-05-15T23:48:47.698Z,14.80
2023-05-15T23:51:15.872Z,15.30
2023-05-15T23:53:43.834Z,14.50
2023-05-15T23:56:11.800Z,14.30
2023-05-15T23:58:39.788Z,14.10
